Time,TemperatureF,DewpointF,PressureIn,WindDirection,WindDirectionDegrees,WindSpeedMPH,WindSpeedGustMPH,Humidity,HourlyPrecipIn,Conditions,Clouds,dailyrainin,SoftwareType,DateUTC
2013-06-01 00:00:00,65.4,58.7,29.76,NE,45,0.0,0.0,79,0.00,BKN,BKN,0.00,WeatherDisplay:10.37,2013-06-01 05:00:00,
2013-06-01 00:06:00,65.2,58.5,29.76,NNE,12,0.0,0.0,79,0.00,BKN,BKN,0.00,WeatherDisplay:10.37,2013-06-01 05:06:00,
2013-06-01 00:12:00,65.2,59.2,29.76,WNW,298,2.0,3.0,81,0.00,BKN,BKN,0.00,WeatherDisplay:10.37,2013-06-01 05:12:00,
2013-06-01 00:18:00,65.3,59.7,29.77,WNW,291,2.0,3.0,82,0.00,BKN,BKN,0.00,WeatherDisplay:10.37,2013-06-01 05:18:00,
2013-06-01 00:24:00,65.2,59.5,29.77,NW,306,0.0,0.0,82,0.00,BKN,BKN,0.00,WeatherDisplay:10.37,2013-06-01 05:24:00,
2013-06-01 00:30:00,65.0,59.3,29.77,East,90,0.0,0.0,82,0.00,BKN,BKN,0.00,WeatherDisplay:10.37,2013-06-01 05:30:00,
2013-06-01 00:36:00,64.8,59.1,29.77,North,357,0.0,0.0,82,0.00,BKN,BKN,0.00,WeatherDisplay:10.37,2013-06-01 05:36:00,
2013-06-01 00:42:00,64.6,59.3,29.77,NW,324,0.0,0.0,83,0.00,BKN,BKN,0.00,WeatherDisplay:10.37,2013-06-01 05:42:00,
2013-06-01 00:48:00,64.6,59.6,29.77,ENE,67,0.0,0.0,84,0.00,BKN,BKN,0.00,WeatherDisplay:10.37,2013-06-01 05:48:00,
2013-06-01 00:54:00,64.6,59.9,29.78,ENE,70,0.0,3.0,85,0.00,BKN,BKN,0.00,WeatherDisplay:10.37,2013-06-01 05:54:00,
2013-06-01 01:00:00,64.8,60.1,29.78,ENE,74,0.0,0.0,85,0.00,BKN,BKN,0.00,WeatherDisplay:10.37,2013-06-01 06:00:00,
2013-06-01 01:06:00,64.8,60.1,29.76,ENE,73,0.0,0.0,85,0.00,BKN,BKN,0.00,WeatherDisplay:10.37,2013-06-01 06:06:00,
2013-06-01 01:12:00,65.2,60.2,29.76,East,95,3.0,6.0,84,0.00,BKN,BKN,0.00,WeatherDisplay:10.37,2013-06-01 06:12:00,
2013-06-01 01:18:00,65.7,60.0,29.74,ESE,112,0.0,0.0,82,0.00,BKN,BKN,0.00,WeatherDisplay:10.37,2013-06-01 06:18:00,
2013-06-01 01:24:00,65.9,59.9,29.74,ENE,74,1.0,3.0,81,0.00,BKN,BKN,0.00,WeatherDisplay:10.37,2013-06-01 06:24:00,
2013-06-01 01:30:00,65.9,59.9,29.75,NNW,327,3.0,3.0,81,0.00,BKN,BKN,0.00,WeatherDisplay:10.37,2013-06-01 06:30:00,
2013-06-01 01:36:00,67.0,60.2,29.77,NW,305,3.0,6.0,79,0.00,BKN,BKN,0.00,WeatherDisplay:10.37,2013-06-01 06:36:00,
2013-06-01 01:42:00,67.1,60.7,29.79,WNW,298,6.0,8.0,80,0.00,BKN,BKN,0.00,WeatherDisplay:10.37,2013-06-01 06:42:00,
2013-06-01 01:48:00,67.1,60.7,29.80,WNW,293,1.0,5.0,80,0.00,BKN,BKN,0.00,WeatherDisplay:10.37,2013-06-01 06:48:00,
2013-06-01 01:54:00,67.0,60.6,29.82,NNE,31,5.0,7.0,80,0.00,BKN,BKN,0.00,WeatherDisplay:10.37,2013-06-01 06:54:00,
2013-06-01 02:00:00,66.8,60.4,29.82,North,357,3.0,8.0,80,0.00,BKN,BKN,0.00,WeatherDisplay:10.37,2013-06-01 07:00:00,
2013-06-01 02:06:00,66.8,59.7,29.80,NE,47,8.0,12.0,78,0.00,BKN,BKN,0.00,WeatherDisplay:10.37,2013-06-01 07:06:00,
2013-06-01 02:12:00,66.9,59.5,29.80,NE,43,10.0,13.0,77,0.00,BKN,BKN,0.00,WeatherDisplay:10.37,2013-06-01 07:12:00,
2013-06-01 02:18:00,67.4,59.9,29.79,West,280,0.0,0.0,77,0.00,BKN,BKN,0.00,WeatherDisplay:10.37,2013-06-01 07:18:00,
2013-06-01 02:24:00,67.1,60.0,29.80,West,260,0.0,0.0,78,0.00,BKN,BKN,0.00,WeatherDisplay:10.37,2013-06-01 07:24:00,
2013-06-01 02:30:00,67.9,60.1,29.83,West,281,7.0,16.0,76,0.00,BKN,BKN,0.00,WeatherDisplay:10.37,2013-06-01 07:30:00,
2013-06-01 02:36:00,67.9,60.0,29.83,WNW,292,13.0,15.0,76,0.00,OVC,OVC,0.00,WeatherDisplay:10.37,2013-06-01 07:36:00,
2013-06-01 02:42:00,67.7,59.1,29.83,NW,314,9.0,15.0,74,0.00,OVC,OVC,0.00,WeatherDisplay:10.37,2013-06-01 07:42:00,
2013-06-01 02:48:00,67.3,57.9,29.83,WNW,301,9.0,15.0,72,0.00,OVC,OVC,0.00,WeatherDisplay:10.37,2013-06-01 07:48:00,
2013-06-01 02:54:00,67.5,56.5,29.82,WNW,294,7.0,13.0,68,0.00,OVC,OVC,0.00,WeatherDisplay:10.37,2013-06-01 07:54:00,
2013-06-01 03:00:00,66.9,55.6,29.82,ENE,62,6.0,13.0,67,0.00,OVC,OVC,0.00,WeatherDisplay:10.37,2013-06-01 08:00:00,
2013-06-01 03:06:00,66.2,56.1,29.77,NE,34,0.0,0.0,70,0.00,OVC,OVC,0.00,WeatherDisplay:10.37,2013-06-01 08:06:00,
2013-06-01 03:12:00,65.5,56.6,29.77,ESE,123,0.0,0.0,73,0.00,OVC,OVC,0.00,WeatherDisplay:10.37,2013-06-01 08:12:00,
2013-06-01 03:18:00,65.5,55.0,29.76,WNW,287,6.0,8.0,69,0.00,OVC,OVC,0.00,WeatherDisplay:10.37,2013-06-01 08:18:00,
2013-06-01 03:24:00,65.4,55.0,29.76,North,10,9.0,18.0,69,0.00,RA,RA,0.01,WeatherDisplay:10.37,2013-06-01 08:24:00,
2013-06-01 03:30:00,64.1,53.7,29.76,NE,37,6.0,8.0,69,0.00,OVC,OVC,0.01,WeatherDisplay:10.37,2013-06-01 08:30:00,
2013-06-01 03:36:00,63.5,53.1,29.76,NW,310,7.0,14.0,69,0.00,-RA,-RA,0.01,WeatherDisplay:10.37,2013-06-01 08:36:00,
2013-06-01 03:42:00,63.0,51.8,29.81,NW,316,8.0,15.0,67,0.00,-RA,-RA,0.01,WeatherDisplay:10.37,2013-06-01 08:42:00,
2013-06-01 03:48:00,62.6,51.4,29.80,WNW,294,8.0,12.0,67,0.00,-RA,-RA,0.01,WeatherDisplay:10.37,2013-06-01 08:48:00,
2013-06-01 03:54:00,62.4,50.5,29.80,North,11,5.0,7.0,65,0.00,-RA,-RA,0.01,WeatherDisplay:10.37,2013-06-01 08:54:00,
2013-06-01 04:00:00,62.3,50.3,29.80,WNW,285,6.0,10.0,65,0.00,-RA,-RA,0.01,WeatherDisplay:10.37,2013-06-01 09:00:00,
2013-06-01 04:06:00,61.7,49.8,29.81,NNW,335,6.0,9.0,65,0.00,-RA,-RA,0.01,WeatherDisplay:10.37,2013-06-01 09:06:00,
2013-06-01 04:12:00,61.6,49.8,29.81,NNE,30,7.0,13.0,65,0.00,-RA,-RA,0.01,WeatherDisplay:10.37,2013-06-01 09:12:00,
2013-06-01 04:18:00,61.6,50.1,29.78,NNE,17,7.0,10.0,66,0.00,-RA,-RA,0.01,WeatherDisplay:10.37,2013-06-01 09:18:00,
2013-06-01 04:24:00,61.4,49.9,29.78,West,276,7.0,10.0,66,0.00,-RA,-RA,0.01,WeatherDisplay:10.37,2013-06-01 09:24:00,
2013-06-01 04:30:00,61.0,49.9,29.81,West,272,7.0,9.0,67,0.00,-RA,-RA,0.01,WeatherDisplay:10.37,2013-06-01 09:30:00,
2013-06-01 04:36:00,60.6,50.0,29.81,WNW,295,6.0,8.0,68,0.00,BKN,BKN,0.01,WeatherDisplay:10.37,2013-06-01 09:36:00,
2013-06-01 04:42:00,60.3,50.0,29.80,NW,310,9.0,12.0,69,0.00,BKN,BKN,0.01,WeatherDisplay:10.37,2013-06-01 09:42:00,
2013-06-01 04:48:00,60.3,49.7,29.81,NW,314,7.0,9.0,68,0.00,BKN,BKN,0.01,WeatherDisplay:10.37,2013-06-01 09:48:00,
2013-06-01 04:54:00,60.1,49.5,29.81,NW,307,8.0,15.0,68,0.00,BKN,BKN,0.01,WeatherDisplay:10.37,2013-06-01 09:54:00,
2013-06-01 05:00:00,59.8,49.2,29.81,WNW,294,3.0,9.0,68,0.00,BKN,BKN,0.01,WeatherDisplay:10.37,2013-06-01 10:00:00,
2013-06-01 05:06:00,59.6,49.0,29.81,WNW,284,9.0,12.0,68,0.00,BKN,BKN,0.01,WeatherDisplay:10.37,2013-06-01 10:06:00,
2013-06-01 05:12:00,59.4,48.8,29.81,West,276,10.0,14.0,68,0.00,BKN,BKN,0.01,WeatherDisplay:10.37,2013-06-01 10:12:00,
2013-06-01 05:18:00,59.4,48.8,29.81,West,281,10.0,15.0,68,0.00,BKN,BKN,0.01,WeatherDisplay:10.37,2013-06-01 10:18:00,
2013-06-01 05:24:00,59.2,48.6,29.81,NW,310,9.0,11.0,68,0.00,BKN,BKN,0.01,WeatherDisplay:10.37,2013-06-01 10:24:00,
2013-06-01 05:30:00,59.0,48.4,29.82,NW,307,9.0,14.0,68,0.00,BKN,BKN,0.01,WeatherDisplay:10.37,2013-06-01 10:30:00,
2013-06-01 05:36:00,58.7,48.5,29.82,WNW,300,9.0,11.0,69,0.00,SCT,SCT,0.01,WeatherDisplay:10.37,2013-06-01 10:36:00,
2013-06-01 05:42:00,58.7,48.5,29.82,West,274,13.0,17.0,69,0.00,SCT,SCT,0.01,WeatherDisplay:10.37,2013-06-01 10:42:00,
2013-06-01 05:48:00,58.7,48.5,29.82,WNW,302,10.0,11.0,69,0.00,SCT,SCT,0.01,WeatherDisplay:10.37,2013-06-01 10:48:00,
2013-06-01 05:54:00,58.3,48.1,29.83,NW,307,7.0,9.0,69,0.00,SCT,SCT,0.01,WeatherDisplay:10.37,2013-06-01 10:54:00,
2013-06-01 06:00:00,58.1,47.9,29.83,West,274,8.0,17.0,69,0.00,SCT,SCT,0.01,WeatherDisplay:10.37,2013-06-01 11:00:00,
2013-06-01 06:06:00,58.1,47.9,29.84,West,266,9.0,16.0,69,0.00,SCT,SCT,0.01,WeatherDisplay:10.37,2013-06-01 11:06:00,
2013-06-01 06:12:00,58.1,47.6,29.84,WNW,294,6.0,8.0,68,0.00,SCT,SCT,0.01,WeatherDisplay:10.37,2013-06-01 11:12:00,
2013-06-01 06:18:00,58.0,47.5,29.85,WNW,289,10.0,12.0,68,0.00,SCT,SCT,0.01,WeatherDisplay:10.37,2013-06-01 11:18:00,
2013-06-01 06:24:00,57.8,47.3,29.85,WNW,289,7.0,10.0,68,0.00,SCT,SCT,0.01,WeatherDisplay:10.37,2013-06-01 11:24:00,
2013-06-01 06:30:00,57.6,47.1,29.85,WNW,294,6.0,18.0,68,0.00,SCT,SCT,0.01,WeatherDisplay:10.37,2013-06-01 11:30:00,
2013-06-01 06:36:00,57.6,47.1,29.85,NW,312,6.0,12.0,68,0.00,SCT,SCT,0.01,WeatherDisplay:10.37,2013-06-01 11:36:00,
2013-06-01 06:42:00,57.6,47.1,29.86,NW,312,6.0,12.0,68,0.00,SCT,SCT,0.01,WeatherDisplay:10.37,2013-06-01 11:42:00,
2013-06-01 06:48:00,57.6,47.1,29.86,NW,319,7.0,12.0,68,0.00,SCT,SCT,0.01,WeatherDisplay:10.37,2013-06-01 11:48:00,
2013-06-01 06:54:00,57.6,47.5,29.87,NW,316,7.0,9.0,69,0.00,SCT,SCT,0.01,WeatherDisplay:10.37,2013-06-01 11:54:00,
2013-06-01 07:00:00,57.4,47.3,29.87,WNW,303,6.0,9.0,69,0.00,SCT,SCT,0.01,WeatherDisplay:10.37,2013-06-01 12:00:00,
2013-06-01 07:06:00,57.2,47.1,29.88,NW,315,10.0,12.0,69,0.00,SCT,SCT,0.01,WeatherDisplay:10.37,2013-06-01 12:06:00,
2013-06-01 07:12:00,57.4,47.3,29.88,NW,307,10.0,17.0,69,0.00,SCT,SCT,0.01,WeatherDisplay:10.37,2013-06-01 12:12:00,
2013-06-01 07:18:00,57.8,47.7,29.88,WNW,300,8.0,12.0,69,0.00,SCT,SCT,0.01,WeatherDisplay:10.37,2013-06-01 12:18:00,
2013-06-01 07:24:00,57.8,47.7,29.88,WNW,288,7.0,9.0,69,0.00,SCT,SCT,0.01,WeatherDisplay:10.37,2013-06-01 12:24:00,
2013-06-01 07:30:00,57.8,47.7,29.89,WNW,286,7.0,8.0,69,0.00,SCT,SCT,0.01,WeatherDisplay:10.37,2013-06-01 12:30:00,
2013-06-01 07:36:00,58.0,47.8,29.89,WNW,301,8.0,12.0,69,0.00,SCT,SCT,0.01,WeatherDisplay:10.37,2013-06-01 12:36:00,
2013-06-01 07:42:00,58.1,47.9,29.89,WNW,294,9.0,15.0,69,0.00,SCT,SCT,0.01,WeatherDisplay:10.37,2013-06-01 12:42:00,
2013-06-01 07:48:00,58.5,47.9,29.89,NNW,328,15.0,20.0,68,0.00,SCT,SCT,0.01,WeatherDisplay:10.37,2013-06-01 12:48:00,
2013-06-01 07:54:00,58.8,48.2,29.90,WNW,296,13.0,16.0,68,0.00,SCT,SCT,0.01,WeatherDisplay:10.37,2013-06-01 12:54:00,
2013-06-01 08:00:00,59.0,48.4,29.90,NW,308,8.0,16.0,68,0.00,SCT,SCT,0.01,WeatherDisplay:10.37,2013-06-01 13:00:00,
2013-06-01 08:06:00,59.4,48.4,29.90,WNW,292,10.0,16.0,67,0.00,SCT,SCT,0.01,WeatherDisplay:10.37,2013-06-01 13:06:00,
2013-06-01 08:12:00,59.8,48.8,29.90,WNW,291,10.0,16.0,67,0.00,SCT,SCT,0.01,WeatherDisplay:10.37,2013-06-01 13:12:00,
2013-06-01 08:18:00,60.1,49.1,29.91,NW,313,7.0,10.0,67,0.00,SCT,SCT,0.01,WeatherDisplay:10.37,2013-06-01 13:18:00,
2013-06-01 08:24:00,60.7,49.2,29.91,NW,312,7.0,13.0,66,0.00,SCT,SCT,0.01,WeatherDisplay:10.37,2013-06-01 13:24:00,
2013-06-01 08:30:00,61.2,48.9,29.92,NNW,329,13.0,17.0,64,0.00,SCT,SCT,0.01,WeatherDisplay:10.37,2013-06-01 13:30:00,
2013-06-01 08:36:00,61.4,49.1,29.92,WNW,291,9.0,17.0,64,0.00,SCT,SCT,0.01,WeatherDisplay:10.37,2013-06-01 13:36:00,
2013-06-01 08:42:00,61.6,48.8,29.92,WNW,292,8.0,14.0,63,0.00,SCT,SCT,0.01,WeatherDisplay:10.37,2013-06-01 13:42:00,
2013-06-01 08:48:00,61.7,48.9,29.92,NW,308,9.0,14.0,63,0.00,SCT,SCT,0.01,WeatherDisplay:10.37,2013-06-01 13:48:00,
2013-06-01 08:54:00,61.9,49.1,29.92,NW,305,12.0,17.0,63,0.00,SCT,SCT,0.01,WeatherDisplay:10.37,2013-06-01 13:54:00,
2013-06-01 09:00:00,62.5,49.7,29.92,WNW,298,9.0,20.0,63,0.00,SCT,SCT,0.01,WeatherDisplay:10.37,2013-06-01 14:00:00,
2013-06-01 09:06:00,62.5,49.7,29.92,North,8,16.0,16.0,63,0.00,SCT,SCT,0.01,WeatherDisplay:10.37,2013-06-01 14:06:00,
2013-06-01 09:12:00,63.0,48.9,29.92,NNW,333,13.0,21.0,60,0.00,SCT,SCT,0.01,WeatherDisplay:10.37,2013-06-01 14:12:00,
2013-06-01 09:18:00,63.4,49.3,29.93,WNW,291,12.0,14.0,60,0.00,SCT,SCT,0.01,WeatherDisplay:10.37,2013-06-01 14:18:00,
2013-06-01 09:24:00,63.9,48.8,29.93,NW,312,16.0,20.0,58,0.00,SCT,SCT,0.01,WeatherDisplay:10.37,2013-06-01 14:24:00,
2013-06-01 09:30:00,63.9,48.3,29.93,West,274,15.0,15.0,57,0.00,SCT,SCT,0.01,WeatherDisplay:10.37,2013-06-01 14:30:00,
2013-06-01 09:36:00,64.3,48.2,29.93,West,262,13.0,18.0,56,0.00,SCT,SCT,0.01,WeatherDisplay:10.37,2013-06-01 14:36:00,
2013-06-01 09:42:00,64.9,49.3,29.94,WNW,300,8.0,14.0,57,0.00,SCT,SCT,0.01,WeatherDisplay:10.37,2013-06-01 14:42:00,
2013-06-01 09:48:00,65.1,48.5,29.94,NW,321,15.0,26.0,55,0.00,SCT,SCT,0.01,WeatherDisplay:10.37,2013-06-01 14:48:00,
2013-06-01 09:54:00,65.4,48.3,29.94,WNW,293,16.0,21.0,54,0.00,SCT,SCT,0.01,WeatherDisplay:10.37,2013-06-01 14:54:00,
2013-06-01 10:00:00,66.1,49.4,29.94,WNW,292,14.0,20.0,55,0.00,SCT,SCT,0.01,WeatherDisplay:10.37,2013-06-01 15:00:00,
2013-06-01 10:06:00,65.5,48.9,29.93,WNW,285,14.0,23.0,55,0.00,SCT,SCT,0.01,WeatherDisplay:10.37,2013-06-01 15:06:00,
2013-06-01 10:12:00,66.1,49.4,29.93,WNW,290,9.0,24.0,55,0.00,SCT,SCT,0.01,WeatherDisplay:10.37,2013-06-01 15:12:00,
2013-06-01 10:18:00,66.2,49.5,29.93,WNW,285,10.0,15.0,55,0.00,SCT,SCT,0.01,WeatherDisplay:10.37,2013-06-01 15:18:00,
2013-06-01 10:24:00,66.2,49.5,29.93,NW,307,10.0,23.0,55,0.00,SCT,SCT,0.01,WeatherDisplay:10.37,2013-06-01 15:24:00,
2013-06-01 10:30:00,67.1,49.9,29.93,WNW,292,9.0,17.0,54,0.00,SCT,SCT,0.01,WeatherDisplay:10.37,2013-06-01 15:30:00,
2013-06-01 10:36:00,67.0,50.3,29.93,NW,304,12.0,22.0,55,0.00,SCT,SCT,0.01,WeatherDisplay:10.37,2013-06-01 15:36:00,
2013-06-01 10:42:00,67.1,49.9,29.94,WNW,293,21.0,22.0,54,0.00,SCT,SCT,0.01,WeatherDisplay:10.37,2013-06-01 15:42:00,
2013-06-01 10:48:00,67.7,50.4,29.94,West,281,8.0,18.0,54,0.00,SCT,SCT,0.01,WeatherDisplay:10.37,2013-06-01 15:48:00,
2013-06-01 10:54:00,67.3,49.5,29.94,West,278,13.0,26.0,53,0.00,SCT,SCT,0.01,WeatherDisplay:10.37,2013-06-01 15:54:00,
2013-06-01 11:00:00,66.6,49.4,29.94,West,278,17.0,29.0,54,0.00,SCT,SCT,0.01,WeatherDisplay:10.37,2013-06-01 16:00:00,
2013-06-01 11:06:00,67.3,50.0,29.94,West,278,12.0,20.0,54,0.00,SCT,SCT,0.01,WeatherDisplay:10.37,2013-06-01 16:06:00,
2013-06-01 11:12:00,67.8,50.1,29.94,West,268,10.0,18.0,53,0.00,SCT,SCT,0.01,WeatherDisplay:10.37,2013-06-01 16:12:00,
2013-06-01 11:18:00,67.8,50.5,29.94,NW,309,17.0,25.0,54,0.00,SCT,SCT,0.01,WeatherDisplay:10.37,2013-06-01 16:18:00,
2013-06-01 11:24:00,69.2,51.8,29.94,NW,316,9.0,20.0,54,0.00,SCT,SCT,0.01,WeatherDisplay:10.37,2013-06-01 16:24:00,
2013-06-01 11:30:00,68.7,51.4,29.94,WNW,303,14.0,28.0,54,0.00,SCT,SCT,0.01,WeatherDisplay:10.37,2013-06-01 16:30:00,
2013-06-01 11:36:00,67.9,50.1,29.94,WNW,295,17.0,25.0,53,0.00,SCT,SCT,0.01,WeatherDisplay:10.37,2013-06-01 16:36:00,
2013-06-01 11:42:00,67.0,49.8,29.96,WNW,301,15.0,22.0,54,0.00,SCT,SCT,0.01,WeatherDisplay:10.37,2013-06-01 16:42:00,
2013-06-01 11:48:00,67.6,50.9,29.96,WNW,296,9.0,17.0,55,0.00,SCT,SCT,0.01,WeatherDisplay:10.37,2013-06-01 16:48:00,
2013-06-01 11:54:00,66.4,49.7,29.96,WNW,297,15.0,25.0,55,0.00,SCT,SCT,0.01,WeatherDisplay:10.37,2013-06-01 16:54:00,
2013-06-01 12:00:00,67.1,50.8,29.97,NW,315,12.0,18.0,56,0.00,SCT,SCT,0.01,WeatherDisplay:10.37,2013-06-01 17:00:00,
2013-06-01 12:06:00,66.3,49.7,29.97,NW,317,16.0,25.0,55,0.00,BKN,BKN,0.01,WeatherDisplay:10.37,2013-06-01 17:06:00,
2013-06-01 12:12:00,66.4,50.2,29.97,WNW,287,17.0,20.0,56,0.00,BKN,BKN,0.01,WeatherDisplay:10.37,2013-06-01 17:12:00,
2013-06-01 12:18:00,66.8,50.6,29.97,WNW,291,20.0,20.0,56,0.00,BKN,BKN,0.01,WeatherDisplay:10.37,2013-06-01 17:18:00,
2013-06-01 12:24:00,67.3,50.5,29.97,WNW,283,20.0,20.0,55,0.00,BKN,BKN,0.01,WeatherDisplay:10.37,2013-06-01 17:24:00,
2013-06-01 12:30:00,68.2,50.9,29.97,WNW,284,10.0,20.0,54,0.00,BKN,BKN,0.01,WeatherDisplay:10.37,2013-06-01 17:30:00,
2013-06-01 12:36:00,67.2,50.5,29.97,West,277,13.0,20.0,55,0.00,BKN,BKN,0.01,WeatherDisplay:10.37,2013-06-01 17:36:00,
2013-06-01 12:42:00,67.5,51.2,29.97,West,277,18.0,22.0,56,0.00,BKN,BKN,0.01,WeatherDisplay:10.37,2013-06-01 17:42:00,
2013-06-01 12:48:00,68.9,51.5,29.98,WNW,293,17.0,22.0,54,0.00,BKN,BKN,0.01,WeatherDisplay:10.37,2013-06-01 17:48:00,
2013-06-01 12:54:00,67.9,50.6,29.98,WNW,292,12.0,18.0,54,0.00,BKN,BKN,0.01,WeatherDisplay:10.37,2013-06-01 17:54:00,
2013-06-01 13:00:00,68.0,52.2,29.98,WNW,294,9.0,20.0,57,0.00,BKN,BKN,0.01,WeatherDisplay:10.37,2013-06-01 18:00:00,
2013-06-01 13:06:00,67.5,51.7,29.98,WNW,298,9.0,26.0,57,0.00,BKN,BKN,0.01,WeatherDisplay:10.37,2013-06-01 18:06:00,
2013-06-01 13:12:00,67.6,50.9,29.98,WNW,283,18.0,22.0,55,0.00,BKN,BKN,0.01,WeatherDisplay:10.37,2013-06-01 18:12:00,
2013-06-01 13:18:00,67.1,50.8,29.97,WNW,289,16.0,20.0,56,0.00,BKN,BKN,0.01,WeatherDisplay:10.37,2013-06-01 18:18:00,
2013-06-01 13:24:00,67.8,51.5,29.97,WNW,302,12.0,20.0,56,0.00,BKN,BKN,0.01,WeatherDisplay:10.37,2013-06-01 18:24:00,
2013-06-01 13:30:00,68.4,52.0,29.97,WNW,301,12.0,16.0,56,0.00,BKN,BKN,0.01,WeatherDisplay:10.37,2013-06-01 18:30:00,
2013-06-01 13:36:00,68.7,51.8,29.97,NW,305,12.0,16.0,55,0.00,BKN,BKN,0.01,WeatherDisplay:10.37,2013-06-01 18:36:00,
2013-06-01 13:42:00,67.7,51.9,29.97,WNW,290,13.0,17.0,57,0.00,BKN,BKN,0.01,WeatherDisplay:10.37,2013-06-01 18:42:00,
2013-06-01 13:48:00,67.3,51.5,29.97,WNW,289,12.0,17.0,57,0.00,BKN,BKN,0.01,WeatherDisplay:10.37,2013-06-01 18:48:00,
2013-06-01 13:54:00,67.6,51.8,29.98,WNW,297,13.0,17.0,57,0.00,BKN,BKN,0.01,WeatherDisplay:10.37,2013-06-01 18:54:00,
2013-06-01 14:00:00,68.3,52.0,29.98,WNW,295,12.0,15.0,56,0.00,BKN,BKN,0.01,WeatherDisplay:10.37,2013-06-01 19:00:00,
2013-06-01 14:06:00,67.9,52.1,29.98,NW,310,14.0,18.0,57,0.00,OVC,OVC,0.01,WeatherDisplay:10.37,2013-06-01 19:06:00,
2013-06-01 14:12:00,69.0,53.1,29.98,WNW,303,8.0,17.0,57,0.00,OVC,OVC,0.01,WeatherDisplay:10.37,2013-06-01 19:12:00,
2013-06-01 14:18:00,69.0,52.7,29.97,WNW,297,10.0,16.0,56,0.00,OVC,OVC,0.01,WeatherDisplay:10.37,2013-06-01 19:18:00,
2013-06-01 14:24:00,68.6,52.7,29.97,NW,307,15.0,22.0,57,0.00,OVC,OVC,0.01,WeatherDisplay:10.37,2013-06-01 19:24:00,
2013-06-01 14:30:00,68.6,52.7,29.98,WNW,299,14.0,18.0,57,0.00,OVC,OVC,0.01,WeatherDisplay:10.37,2013-06-01 19:30:00,
2013-06-01 14:36:00,68.2,52.4,29.98,WNW,292,14.0,16.0,57,0.00,OVC,OVC,0.01,WeatherDisplay:10.37,2013-06-01 19:36:00,
2013-06-01 14:42:00,69.6,53.2,29.98,WNW,295,13.0,20.0,56,0.00,OVC,OVC,0.01,WeatherDisplay:10.37,2013-06-01 19:42:00,
2013-06-01 14:48:00,69.1,52.7,29.98,NW,306,13.0,20.0,56,0.00,OVC,OVC,0.01,WeatherDisplay:10.37,2013-06-01 19:48:00,
2013-06-01 14:54:00,69.0,52.7,29.98,WNW,293,12.0,20.0,56,0.00,OVC,OVC,0.01,WeatherDisplay:10.37,2013-06-01 19:54:00,
2013-06-01 15:00:00,68.9,52.6,29.98,WNW,298,12.0,17.0,56,0.00,OVC,OVC,0.01,WeatherDisplay:10.37,2013-06-01 20:00:00,
2013-06-01 15:06:00,68.8,52.9,29.98,WNW,296,8.0,18.0,57,0.00,OVC,OVC,0.01,WeatherDisplay:10.37,2013-06-01 20:06:00,
2013-06-01 15:12:00,69.6,53.7,29.98,WNW,299,13.0,17.0,57,0.00,OVC,OVC,0.01,WeatherDisplay:10.37,2013-06-01 20:12:00,
2013-06-01 15:18:00,70.7,54.2,29.97,NW,309,14.0,17.0,56,0.00,OVC,OVC,0.01,WeatherDisplay:10.37,2013-06-01 20:18:00,
2013-06-01 15:24:00,70.0,53.5,29.97,NW,308,13.0,18.0,56,0.00,OVC,OVC,0.01,WeatherDisplay:10.37,2013-06-01 20:24:00,
2013-06-01 15:30:00,70.4,53.4,29.98,NW,315,14.0,20.0,55,0.00,OVC,OVC,0.01,WeatherDisplay:10.37,2013-06-01 20:30:00,
2013-06-01 15:36:00,70.7,53.7,29.98,WNW,286,10.0,11.0,55,0.00,OVC,OVC,0.01,WeatherDisplay:10.37,2013-06-01 20:36:00,
2013-06-01 15:42:00,71.5,54.0,29.98,West,272,12.0,20.0,54,0.00,OVC,OVC,0.01,WeatherDisplay:10.37,2013-06-01 20:42:00,
2013-06-01 15:48:00,71.5,53.9,29.98,WNW,302,12.0,15.0,54,0.00,OVC,OVC,0.01,WeatherDisplay:10.37,2013-06-01 20:48:00,
2013-06-01 15:54:00,71.6,54.1,29.97,WNW,297,12.0,17.0,54,0.00,OVC,OVC,0.01,WeatherDisplay:10.37,2013-06-01 20:54:00,
2013-06-01 16:00:00,71.5,54.0,29.97,NW,307,10.0,14.0,54,0.00,OVC,OVC,0.01,WeatherDisplay:10.37,2013-06-01 21:00:00,
2013-06-01 16:06:00,72.9,54.2,29.98,WNW,299,13.0,20.0,52,0.00,OVC,OVC,0.01,WeatherDisplay:10.37,2013-06-01 21:06:00,
2013-06-01 16:12:00,72.4,54.3,29.98,NW,306,6.0,12.0,53,0.00,OVC,OVC,0.01,WeatherDisplay:10.37,2013-06-01 21:12:00,
2013-06-01 16:18:00,73.1,55.5,29.98,West,269,7.0,15.0,54,0.00,OVC,OVC,0.01,WeatherDisplay:10.37,2013-06-01 21:18:00,
2013-06-01 16:24:00,72.1,54.0,29.98,WNW,295,9.0,14.0,53,0.00,OVC,OVC,0.01,WeatherDisplay:10.37,2013-06-01 21:24:00,
2013-06-01 16:30:00,72.5,53.9,29.98,NW,317,8.0,14.0,52,0.00,OVC,OVC,0.01,WeatherDisplay:10.37,2013-06-01 21:30:00,
2013-06-01 16:36:00,73.2,54.5,29.98,NW,309,5.0,20.0,52,0.00,SCT,SCT,0.01,WeatherDisplay:10.37,2013-06-01 21:36:00,
2013-06-01 16:42:00,72.8,54.7,29.98,WNW,303,9.0,20.0,53,0.00,SCT,SCT,0.01,WeatherDisplay:10.37,2013-06-01 21:42:00,
2013-06-01 16:48:00,72.0,53.9,29.98,WNW,301,16.0,20.0,53,0.00,SCT,SCT,0.01,WeatherDisplay:10.37,2013-06-01 21:48:00,
2013-06-01 16:54:00,72.2,54.6,29.98,WNW,300,7.0,11.0,54,0.00,SCT,SCT,0.01,WeatherDisplay:10.37,2013-06-01 21:54:00,
2013-06-01 17:00:00,72.8,54.6,29.98,WNW,297,13.0,20.0,53,0.00,SCT,SCT,0.01,WeatherDisplay:10.37,2013-06-01 22:00:00,
2013-06-01 17:06:00,72.4,54.8,29.98,WNW,299,13.0,13.0,54,0.00,SCT,SCT,0.01,WeatherDisplay:10.37,2013-06-01 22:06:00,
2013-06-01 17:12:00,71.5,54.0,29.98,West,281,13.0,16.0,54,0.00,SCT,SCT,0.01,WeatherDisplay:10.37,2013-06-01 22:12:00,
2013-06-01 17:18:00,70.6,53.6,29.98,West,273,8.0,14.0,55,0.00,SCT,SCT,0.01,WeatherDisplay:10.37,2013-06-01 22:18:00,
2013-06-01 17:24:00,71.2,54.2,29.98,West,273,8.0,14.0,55,0.00,SCT,SCT,0.01,WeatherDisplay:10.37,2013-06-01 22:24:00,
2013-06-01 17:30:00,72.2,54.1,29.98,WNW,299,8.0,11.0,53,0.00,SCT,SCT,0.01,WeatherDisplay:10.37,2013-06-01 22:30:00,
2013-06-01 17:36:00,71.6,54.5,29.98,WNW,295,8.0,10.0,55,0.00,SCT,SCT,0.01,WeatherDisplay:10.37,2013-06-01 22:36:00,
2013-06-01 17:42:00,71.3,54.8,29.98,WNW,298,7.0,12.0,56,0.00,SCT,SCT,0.01,WeatherDisplay:10.37,2013-06-01 22:42:00,
2013-06-01 17:48:00,72.4,55.3,29.98,WNW,298,9.0,24.0,55,0.00,SCT,SCT,0.01,WeatherDisplay:10.37,2013-06-01 22:48:00,
2013-06-01 17:54:00,72.8,54.7,29.98,WNW,293,7.0,9.0,53,0.00,SCT,SCT,0.01,WeatherDisplay:10.37,2013-06-01 22:54:00,
2013-06-01 18:00:00,73.4,54.7,29.98,West,275,7.0,9.0,52,0.00,SCT,SCT,0.01,WeatherDisplay:10.37,2013-06-01 23:00:00,
2013-06-01 18:06:00,73.4,54.7,29.98,WSW,250,9.0,14.0,52,0.00,SCT,SCT,0.01,WeatherDisplay:10.37,2013-06-01 23:06:00,
2013-06-01 18:12:00,72.4,53.8,29.98,WNW,288,13.0,20.0,52,0.00,SCT,SCT,0.01,WeatherDisplay:10.37,2013-06-01 23:12:00,
2013-06-01 18:18:00,73.6,54.8,29.98,NW,304,10.0,10.0,52,0.00,SCT,SCT,0.01,WeatherDisplay:10.37,2013-06-01 23:18:00,
2013-06-01 18:24:00,72.7,55.0,29.98,WNW,299,9.0,13.0,54,0.00,SCT,SCT,0.01,WeatherDisplay:10.37,2013-06-01 23:24:00,
2013-06-01 18:30:00,72.8,54.7,29.98,WNW,294,6.0,16.0,53,0.00,SCT,SCT,0.01,WeatherDisplay:10.37,2013-06-01 23:30:00,
2013-06-01 18:36:00,72.0,53.9,29.98,WNW,301,12.0,14.0,53,0.00,SCT,SCT,0.01,WeatherDisplay:10.37,2013-06-01 23:36:00,
2013-06-01 18:42:00,72.2,54.1,29.98,WNW,290,7.0,14.0,53,0.00,SCT,SCT,0.01,WeatherDisplay:10.37,2013-06-01 23:42:00,
2013-06-01 18:48:00,72.0,53.9,29.98,WNW,300,10.0,14.0,53,0.00,SCT,SCT,0.01,WeatherDisplay:10.37,2013-06-01 23:48:00,
2013-06-01 18:54:00,71.7,53.6,29.98,WNW,302,10.0,14.0,53,0.00,SCT,SCT,0.01,WeatherDisplay:10.37,2013-06-01 23:54:00,
2013-06-01 19:00:00,72.4,54.3,29.98,NW,316,5.0,8.0,53,0.00,SCT,SCT,0.01,WeatherDisplay:10.37,2013-06-02 00:00:00,
2013-06-01 19:06:00,72.6,55.0,29.99,NW,326,6.0,10.0,54,0.00,SCT,SCT,0.01,WeatherDisplay:10.37,2013-06-02 00:06:00,
2013-06-01 19:12:00,72.5,54.9,29.99,NNE,23,6.0,13.0,54,0.00,SCT,SCT,0.01,WeatherDisplay:10.37,2013-06-02 00:12:00,
2013-06-01 19:18:00,72.2,54.6,29.98,NE,55,5.0,9.0,54,0.00,SCT,SCT,0.01,WeatherDisplay:10.37,2013-06-02 00:18:00,
2013-06-01 19:24:00,71.8,54.3,29.98,WSW,255,7.0,11.0,54,0.00,SCT,SCT,0.01,WeatherDisplay:10.37,2013-06-02 00:24:00,
2013-06-01 19:30:00,71.5,54.0,29.98,WSW,249,7.0,9.0,54,0.00,SCT,SCT,0.01,WeatherDisplay:10.37,2013-06-02 00:30:00,
2013-06-01 19:36:00,71.4,54.3,29.98,West,263,7.0,9.0,55,0.00,SCT,SCT,0.01,WeatherDisplay:10.37,2013-06-02 00:36:00,
2013-06-01 19:42:00,70.6,53.7,29.99,NNE,12,9.0,14.0,55,0.00,SCT,SCT,0.01,WeatherDisplay:10.37,2013-06-02 00:42:00,
2013-06-01 19:48:00,70.5,53.6,29.99,North,7,7.0,9.0,55,0.00,SCT,SCT,0.01,WeatherDisplay:10.37,2013-06-02 00:48:00,
2013-06-01 19:54:00,70.6,53.6,30.00,West,274,5.0,8.0,55,0.00,SCT,SCT,0.01,WeatherDisplay:10.37,2013-06-02 00:54:00,
2013-06-01 20:00:00,69.9,53.4,30.00,WSW,256,6.0,8.0,56,0.00,SCT,SCT,0.01,WeatherDisplay:10.37,2013-06-02 01:00:00,
2013-06-01 20:06:00,70.4,53.5,30.00,NW,311,5.0,7.0,55,0.00,SCT,SCT,0.01,WeatherDisplay:10.37,2013-06-02 01:06:00,
2013-06-01 20:12:00,69.7,52.8,30.00,NE,39,7.0,11.0,55,0.00,SCT,SCT,0.01,WeatherDisplay:10.37,2013-06-02 01:12:00,
2013-06-01 20:18:00,69.5,52.6,30.00,NNW,341,5.0,12.0,55,0.00,SCT,SCT,0.01,WeatherDisplay:10.37,2013-06-02 01:18:00,
2013-06-01 20:24:00,68.7,52.3,30.00,NNW,345,5.0,8.0,56,0.00,SCT,SCT,0.01,WeatherDisplay:10.37,2013-06-02 01:24:00,
2013-06-01 20:30:00,68.3,52.0,30.01,NNW,331,5.0,6.0,56,0.00,SCT,SCT,0.01,WeatherDisplay:10.37,2013-06-02 01:30:00,
2013-06-01 20:36:00,67.9,52.1,30.01,North,352,1.0,6.0,57,0.00,SCT,SCT,0.01,WeatherDisplay:10.37,2013-06-02 01:36:00,
2013-06-01 20:42:00,66.8,51.6,30.01,NNE,24,5.0,7.0,58,0.00,SCT,SCT,0.01,WeatherDisplay:10.37,2013-06-02 01:42:00,
2013-06-01 20:48:00,66.8,51.5,30.01,NNW,347,3.0,3.0,58,0.00,SCT,SCT,0.01,WeatherDisplay:10.37,2013-06-02 01:48:00,
2013-06-01 20:54:00,65.8,51.5,30.01,NNE,18,5.0,7.0,60,0.00,SCT,SCT,0.01,WeatherDisplay:10.37,2013-06-02 01:54:00,
2013-06-01 21:00:00,65.3,51.0,30.01,NE,44,2.0,5.0,60,0.00,SCT,SCT,0.01,WeatherDisplay:10.37,2013-06-02 02:00:00,
2013-06-01 21:06:00,65.0,51.6,30.02,NW,317,2.0,5.0,62,0.00,SCT,SCT,0.01,WeatherDisplay:10.37,2013-06-02 02:06:00,
2013-06-01 21:12:00,64.6,51.2,30.02,NW,326,2.0,4.0,62,0.00,SCT,SCT,0.01,WeatherDisplay:10.37,2013-06-02 02:12:00,
2013-06-01 21:18:00,64.2,51.4,30.02,WNW,287,1.0,5.0,63,0.00,SCT,SCT,0.01,WeatherDisplay:10.37,2013-06-02 02:18:00,
2013-06-01 21:24:00,63.9,51.4,30.02,WNW,301,3.0,5.0,64,0.00,SCT,SCT,0.01,WeatherDisplay:10.37,2013-06-02 02:24:00,
2013-06-01 21:30:00,63.5,51.1,30.03,WNW,298,0.0,0.0,64,0.00,SCT,SCT,0.01,WeatherDisplay:10.37,2013-06-02 02:30:00,
2013-06-01 21:36:00,63.2,51.6,30.03,WNW,303,5.0,7.0,66,0.00,SCT,SCT,0.01,WeatherDisplay:10.37,2013-06-02 02:36:00,
2013-06-01 21:42:00,62.9,51.4,30.03,WNW,287,2.0,5.0,66,0.00,SCT,SCT,0.01,WeatherDisplay:10.37,2013-06-02 02:42:00,
2013-06-01 21:48:00,62.6,51.4,30.03,West,267,1.0,5.0,67,0.00,SCT,SCT,0.01,WeatherDisplay:10.37,2013-06-02 02:48:00,
2013-06-01 21:54:00,62.4,51.3,30.04,WNW,296,3.0,7.0,67,0.00,SCT,SCT,0.01,WeatherDisplay:10.37,2013-06-02 02:54:00,
2013-06-01 22:00:00,62.1,51.0,30.04,NW,310,1.0,4.0,67,0.00,SCT,SCT,0.01,WeatherDisplay:10.37,2013-06-02 03:00:00,
2013-06-01 22:06:00,61.9,50.8,30.05,WNW,303,3.0,8.0,67,0.00,SCT,SCT,0.01,WeatherDisplay:10.37,2013-06-02 03:06:00,
2013-06-01 22:12:00,61.9,51.2,30.05,NW,306,3.0,7.0,68,0.00,SCT,SCT,0.01,WeatherDisplay:10.37,2013-06-02 03:12:00,
2013-06-01 22:18:00,61.6,50.9,30.05,NNW,334,2.0,8.0,68,0.00,SCT,SCT,0.01,WeatherDisplay:10.37,2013-06-02 03:18:00,
2013-06-01 22:24:00,61.4,50.7,30.06,NNW,328,6.0,8.0,68,0.00,SCT,SCT,0.01,WeatherDisplay:10.37,2013-06-02 03:24:00,
2013-06-01 22:30:00,61.2,50.6,30.06,WNW,290,5.0,7.0,68,0.00,SCT,SCT,0.01,WeatherDisplay:10.37,2013-06-02 03:30:00,
2013-06-01 22:36:00,61.0,50.3,30.06,WNW,293,6.0,8.0,68,0.00,FEW,FEW,0.01,WeatherDisplay:10.37,2013-06-02 03:36:00,
2013-06-01 22:42:00,60.8,50.1,30.06,WNW,296,5.0,9.0,68,0.00,FEW,FEW,0.01,WeatherDisplay:10.37,2013-06-02 03:42:00,
2013-06-01 22:48:00,60.7,50.1,30.06,NW,325,5.0,7.0,68,0.00,FEW,FEW,0.01,WeatherDisplay:10.37,2013-06-02 03:48:00,
2013-06-01 22:54:00,60.3,50.0,30.06,NW,313,6.0,9.0,69,0.00,FEW,FEW,0.01,WeatherDisplay:10.37,2013-06-02 03:54:00,
2013-06-01 23:00:00,60.0,49.8,30.06,SW,220,3.0,7.0,69,0.00,FEW,FEW,0.01,WeatherDisplay:10.37,2013-06-02 04:00:00,
2013-06-01 23:03:00,59.9,49.7,30.07,WSW,248,3.0,4.0,69,0.00,CLR,CLR,0.01,WeatherDisplay:10.37,2013-06-02 04:03:00,
2013-06-01 23:06:00,59.8,50.0,30.07,NW,320,3.0,6.0,70,0.00,CLR,CLR,0.01,WeatherDisplay:10.37,2013-06-02 04:06:00,
2013-06-01 23:09:00,59.8,50.0,30.07,NW,314,3.0,5.0,70,0.00,CLR,CLR,0.01,WeatherDisplay:10.37,2013-06-02 04:09:00,
2013-06-01 23:15:00,59.6,49.8,30.06,West,272,5.0,8.0,70,0.00,CLR,CLR,0.01,WeatherDisplay:10.37,2013-06-02 04:15:00,
2013-06-01 23:21:00,59.4,49.6,30.06,WNW,295,7.0,9.0,70,0.00,CLR,CLR,0.01,WeatherDisplay:10.37,2013-06-02 04:21:00,
2013-06-01 23:27:00,59.4,49.6,30.06,WNW,285,5.0,9.0,70,0.00,CLR,CLR,0.01,WeatherDisplay:10.37,2013-06-02 04:27:00,
2013-06-01 23:33:00,59.2,49.4,30.06,West,264,7.0,8.0,70,0.00,CLR,CLR,0.01,WeatherDisplay:10.37,2013-06-02 04:33:00,
2013-06-01 23:39:00,59.0,49.2,30.07,NNW,336,5.0,7.0,70,0.00,CLR,CLR,0.01,WeatherDisplay:10.37,2013-06-02 04:39:00,
2013-06-01 23:42:00,58.8,49.0,30.07,NNW,338,5.0,7.0,70,0.00,CLR,CLR,0.01,WeatherDisplay:10.37,2013-06-02 04:42:00,
2013-06-01 23:48:00,58.7,48.9,30.07,West,279,6.0,7.0,70,0.00,CLR,CLR,0.01,WeatherDisplay:10.37,2013-06-02 04:48:00,
2013-06-01 23:54:00,58.3,48.6,30.07,North,6,6.0,8.0,70,0.00,CLR,CLR,0.01,WeatherDisplay:10.37,2013-06-02 04:54:00,